createdAt,value
2019-05-26T00:01:04.736Z,24.00
2019-05-26T00:03:32.804Z,24.00
2019-05-26T00:06:00.776Z,24.00
2019-05-26T00:08:28.752Z,24.00
2019-05-26T00:10:56.817Z,23.90
2019-05-26T00:13:24.795Z,23.90
2019-05-26T00:15:52.852Z,23.90
2019-05-26T00:18:20.821Z,24.00
2019-05-26T00:20:48.793Z,23.90
2019-05-26T00:23:16.760Z,23.90
2019-05-26T00:25:44.833Z,23.90
2019-05-26T00:28:12.815Z,23.90
2019-05-26T00:30:40.871Z,23.90
2019-05-26T00:33:08.841Z,23.90
2019-05-26T00:35:36.911Z,23.90
2019-05-26T00:38:04.984Z,23.90
2019-05-26T00:40:32.949Z,23.90
2019-05-26T00:43:00.923Z,23.90
2019-05-26T00:45:28.889Z,23.90
2019-05-26T00:47:56.857Z,23.90
2019-05-26T00:50:24.726Z,23.90
2019-05-26T00:52:56.339Z,23.90
2019-05-26T00:55:22.407Z,23.90
2019-05-26T00:57:50.264Z,23.90
2019-05-26T01:00:19.772Z,23.90
2019-05-26T01:02:47.842Z,23.90
2019-05-26T01:05:15.914Z,23.90
2019-05-26T01:07:43.897Z,23.90
2019-05-26T01:10:11.953Z,23.90
2019-05-26T01:12:39.924Z,23.90
2019-05-26T01:15:07.999Z,23.80
2019-05-26T01:17:35.861Z,23.80
2019-05-26T01:20:04.380Z,23.80
2019-05-26T01:22:32.324Z,23.80
2019-05-26T01:25:00.284Z,23.80
2019-05-26T01:27:28.659Z,23.80
2019-05-26T01:29:56.625Z,23.80
2019-05-26T01:32:24.603Z,23.80
2019-05-26T01:34:52.477Z,23.80
2019-05-26T01:37:20.531Z,23.80
2019-05-26T01:39:48.449Z,23.80
2019-05-26T01:42:16.369Z,23.90
2019-05-26T01:44:44.404Z,23.90
2019-05-26T01:47:12.436Z,23.80
2019-05-26T01:49:40.377Z,23.80
2019-05-26T01:52:08.452Z,23.80
2019-05-26T01:54:39.956Z,23.80
2019-05-26T01:57:06.023Z,23.80
2019-05-26T01:59:34.096Z,23.80
2019-05-26T02:02:02.076Z,23.80
2019-05-26T02:04:30.038Z,23.80
2019-05-26T02:06:58.102Z,23.80
2019-05-26T02:09:26.074Z,23.80
2019-05-26T02:11:54.100Z,23.80
2019-05-26T02:14:22.033Z,23.80
2019-05-26T02:16:50.082Z,23.80
2019-05-26T02:19:18.118Z,23.80
2019-05-26T02:21:46.227Z,23.80
2019-05-26T02:24:14.293Z,23.80
2019-05-26T02:26:42.365Z,23.80
2019-05-26T02:29:10.335Z,23.80
2019-05-26T02:31:38.373Z,23.80
2019-05-26T02:34:06.298Z,23.80
2019-05-26T02:36:34.342Z,23.80
2019-05-26T02:39:03.441Z,23.80
2019-05-26T02:41:31.740Z,23.80
2019-05-26T02:43:59.786Z,23.80
2019-05-26T02:46:27.860Z,23.80
2019-05-26T02:48:55.928Z,23.80
2019-05-26T02:51:23.904Z,23.80
2019-05-26T02:53:51.868Z,23.80
2019-05-26T02:56:19.850Z,23.80
2019-05-26T02:58:47.805Z,23.80
2019-05-26T03:01:15.892Z,23.80
2019-05-26T03:03:43.946Z,23.80
2019-05-26T03:06:12.020Z,23.80
2019-05-26T03:08:39.889Z,23.80
2019-05-26T03:11:07.858Z,23.80
2019-05-26T03:13:36.057Z,23.80
2019-05-26T03:16:03.998Z,23.80
2019-05-26T03:18:31.969Z,23.80
2019-05-26T03:21:00.239Z,23.80
2019-05-26T03:23:47.416Z,23.80
2019-05-26T03:26:15.431Z,23.80
2019-05-26T03:28:43.294Z,23.80
2019-05-26T03:31:11.382Z,23.80
2019-05-26T03:33:39.554Z,23.90
2019-05-26T03:36:10.441Z,23.80
2019-05-26T03:38:37.045Z,23.80
2019-05-26T03:41:05.097Z,23.80
2019-05-26T03:43:33.061Z,23.80
2019-05-26T03:46:02.661Z,23.80
2019-05-26T03:48:30.733Z,23.80
2019-05-26T03:50:58.753Z,23.80
2019-05-26T03:53:27.084Z,23.80
2019-05-26T03:55:55.049Z,23.80
2019-05-26T03:58:23.668Z,23.80
2019-05-26T04:00:51.510Z,23.80
2019-05-26T04:03:19.570Z,23.80
2019-05-26T04:05:47.545Z,23.80
2019-05-26T04:08:15.614Z,23.80
2019-05-26T04:10:43.749Z,23.80
2019-05-26T04:13:11.784Z,23.80
2019-05-26T04:15:39.726Z,23.80
2019-05-26T04:18:07.748Z,23.80
2019-05-26T04:20:35.858Z,23.80
2019-05-26T04:23:03.835Z,23.80
2019-05-26T04:25:31.850Z,23.80
2019-05-26T04:27:59.867Z,23.80
2019-05-26T04:30:27.733Z,23.80
2019-05-26T04:32:55.699Z,23.80
2019-05-26T04:35:23.669Z,23.80
2019-05-26T04:37:51.634Z,23.80
2019-05-26T04:40:27.332Z,23.80
2019-05-26T04:42:49.113Z,23.80
2019-05-26T04:45:19.027Z,23.80
2019-05-26T04:47:46.995Z,23.80
2019-05-26T04:50:14.986Z,23.80
2019-05-26T04:53:04.081Z,23.80
2019-05-26T04:55:12.349Z,23.80
2019-05-26T04:57:40.406Z,23.80
2019-05-26T05:00:08.373Z,23.80
2019-05-26T05:02:36.343Z,23.80
2019-05-26T05:05:05.365Z,23.80
2019-05-26T05:07:33.097Z,23.80
2019-05-26T05:10:01.219Z,23.80
2019-05-26T05:12:29.139Z,23.80
2019-05-26T05:14:57.109Z,23.90
2019-05-26T05:17:25.079Z,23.90
2019-05-26T05:19:52.949Z,23.80
2019-05-26T05:22:20.921Z,23.90
2019-05-26T05:24:48.884Z,23.90
2019-05-26T05:27:16.851Z,23.80
2019-05-26T05:29:44.922Z,23.80
2019-05-26T05:32:12.893Z,23.90
2019-05-26T05:34:40.861Z,23.80
2019-05-26T05:37:08.829Z,23.80
2019-05-26T05:39:36.905Z,23.80
2019-05-26T05:42:04.971Z,23.90
2019-05-26T05:44:32.941Z,23.80
2019-05-26T05:47:01.011Z,23.90
2019-05-26T05:49:28.988Z,23.80
2019-05-26T05:51:56.963Z,23.90
2019-05-26T05:54:24.921Z,23.80
2019-05-26T05:56:55.535Z,23.80
2019-05-26T05:59:22.397Z,23.80
2019-05-26T06:01:50.374Z,23.80
2019-05-26T06:04:19.869Z,23.80
2019-05-26T06:06:47.885Z,23.80
2019-05-26T06:09:15.805Z,23.80
2019-05-26T06:11:43.985Z,23.90
2019-05-26T06:14:11.904Z,23.90
2019-05-26T06:16:39.825Z,23.90
2019-05-26T06:19:07.882Z,23.90
2019-05-26T06:21:35.896Z,23.80
2019-05-26T06:24:04.129Z,23.80
2019-05-26T06:26:32.205Z,23.90
2019-05-26T06:29:00.270Z,23.90
2019-05-26T06:31:28.245Z,23.90
2019-05-26T06:33:56.217Z,23.90
2019-05-26T06:36:24.305Z,23.90
2019-05-26T06:38:52.189Z,23.90
2019-05-26T06:41:32.793Z,23.90
2019-05-26T06:43:49.725Z,23.90
2019-05-26T06:46:17.593Z,23.90
2019-05-26T06:48:45.661Z,23.90
2019-05-26T06:51:13.563Z,23.90
2019-05-26T06:53:41.546Z,23.90
2019-05-26T06:56:09.521Z,23.90
2019-05-26T06:58:37.558Z,23.90
2019-05-26T07:01:05.739Z,23.90
2019-05-26T07:03:33.750Z,23.90
2019-05-26T07:06:01.779Z,23.90
2019-05-26T07:08:29.730Z,23.90
2019-05-26T07:10:57.688Z,23.90
2019-05-26T07:13:25.769Z,23.90
2019-05-26T07:15:53.727Z,23.90
2019-05-26T07:18:22.047Z,23.90
2019-05-26T07:20:49.877Z,23.90
2019-05-26T07:23:19.275Z,23.90
2019-05-26T07:25:47.241Z,23.90
2019-05-26T07:28:15.367Z,23.90
2019-05-26T07:30:43.322Z,24.00
2019-05-26T07:33:11.365Z,23.90
2019-05-26T07:35:39.328Z,23.90
2019-05-26T07:38:07.291Z,23.90
2019-05-26T07:40:35.356Z,23.90
2019-05-26T07:43:03.260Z,23.90
2019-05-26T07:45:31.294Z,23.90
2019-05-26T07:47:59.335Z,23.90
2019-05-26T07:50:27.435Z,23.90
2019-05-26T07:52:55.417Z,23.90
2019-05-26T07:55:23.479Z,23.90
2019-05-26T07:57:51.445Z,23.90
2019-05-26T08:00:19.442Z,23.90
2019-05-26T08:02:47.491Z,23.90
2019-05-26T08:05:15.524Z,24.00
2019-05-26T08:07:43.536Z,23.90
2019-05-26T08:10:11.599Z,23.90
2019-05-26T08:12:39.569Z,23.90
2019-05-26T08:15:07.577Z,23.80
2019-05-26T08:17:35.526Z,23.90
2019-05-26T08:20:05.213Z,23.90
2019-05-26T08:22:33.140Z,23.90
2019-05-26T08:25:01.249Z,23.90
2019-05-26T08:27:29.331Z,23.90
2019-05-26T08:29:57.293Z,23.90
2019-05-26T08:32:25.334Z,23.80
2019-05-26T08:34:53.334Z,23.90
2019-05-26T08:37:21.301Z,23.90
2019-05-26T08:39:49.299Z,23.90
2019-05-26T08:42:26.987Z,23.90
2019-05-26T08:44:47.051Z,23.90
2019-05-26T08:47:15.155Z,23.90
2019-05-26T08:49:43.090Z,23.90
2019-05-26T08:52:11.336Z,23.90
2019-05-26T08:54:39.437Z,23.90
2019-05-26T08:57:07.409Z,23.90
2019-05-26T08:59:35.395Z,24.00
2019-05-26T09:02:03.446Z,24.00
2019-05-26T09:04:31.420Z,24.00
2019-05-26T09:06:59.392Z,24.00
2019-05-26T09:09:30.053Z,24.00
2019-05-26T09:11:58.294Z,24.00
2019-05-26T09:14:45.528Z,24.00
2019-05-26T09:17:13.588Z,24.00
2019-05-26T09:19:41.651Z,24.00
2019-05-26T09:22:09.657Z,24.00
2019-05-26T09:24:37.598Z,24.00
2019-05-26T09:27:05.710Z,24.00
2019-05-26T09:29:33.758Z,24.00
2019-05-26T09:32:01.725Z,24.10
2019-05-26T09:34:29.778Z,24.20
2019-05-26T09:36:58.965Z,24.30
2019-05-26T09:39:27.118Z,24.30
2019-05-26T09:41:55.268Z,24.20
2019-05-26T09:44:23.285Z,24.20
2019-05-26T09:46:51.356Z,24.30
2019-05-26T09:49:19.426Z,24.30
2019-05-26T09:51:47.506Z,24.30
2019-05-26T09:54:15.482Z,24.30
2019-05-26T09:56:43.536Z,24.30
2019-05-26T09:59:11.514Z,24.30
2019-05-26T10:01:39.477Z,24.30
2019-05-26T10:04:07.564Z,24.30
2019-05-26T10:06:35.619Z,24.30
2019-05-26T10:09:03.904Z,24.30
2019-05-26T10:11:31.862Z,24.30
2019-05-26T10:13:59.772Z,24.30
2019-05-26T10:16:27.701Z,24.30
2019-05-26T10:18:55.669Z,24.40
2019-05-26T10:21:23.674Z,24.40
2019-05-26T10:23:53.255Z,24.40
2019-05-26T10:26:21.525Z,24.30
2019-05-26T10:28:49.587Z,24.40
2019-05-26T10:31:17.562Z,24.40
2019-05-26T10:33:45.630Z,24.40
2019-05-26T10:36:13.602Z,24.30
2019-05-26T10:38:41.566Z,24.30
2019-05-26T10:41:09.469Z,24.30
2019-05-26T10:43:46.836Z,24.30
2019-05-26T10:46:07.212Z,24.30
2019-05-26T10:48:35.397Z,24.30
2019-05-26T10:51:06.667Z,24.30
2019-05-26T10:53:33.170Z,24.30
2019-05-26T10:56:02.274Z,24.30
2019-05-26T10:58:30.233Z,24.30
2019-05-26T11:00:58.207Z,24.30
2019-05-26T11:03:26.285Z,24.30
2019-05-26T11:05:54.239Z,24.30
2019-05-26T11:08:22.312Z,24.30
2019-05-26T11:10:50.382Z,24.30
2019-05-26T11:13:18.394Z,24.30
2019-05-26T11:15:46.195Z,24.30
2019-05-26T11:18:14.288Z,24.30
2019-05-26T11:20:42.979Z,24.30
2019-05-26T11:23:11.043Z,24.30
2019-05-26T11:25:39.143Z,24.30
2019-05-26T11:28:07.093Z,24.30
2019-05-26T11:30:35.017Z,24.30
2019-05-26T11:33:03.051Z,24.30
2019-05-26T11:35:30.999Z,24.30
2019-05-26T11:37:59.064Z,24.30
2019-05-26T11:40:27.033Z,24.30
2019-05-26T11:42:55.002Z,24.30
2019-05-26T11:45:22.973Z,24.30
2019-05-26T11:47:50.942Z,24.40
2019-05-26T11:50:19.010Z,24.40
2019-05-26T11:52:47.083Z,24.40
2019-05-26T11:55:15.160Z,24.40
2019-05-26T11:57:43.137Z,24.40
2019-05-26T12:00:13.121Z,24.40
2019-05-26T12:02:41.532Z,24.40
2019-05-26T12:05:09.584Z,24.40
2019-05-26T12:07:37.699Z,24.40
2019-05-26T12:10:06.755Z,24.40
2019-05-26T12:12:34.829Z,24.50
2019-05-26T12:15:02.894Z,24.40
2019-05-26T12:17:30.866Z,24.40
2019-05-26T12:19:58.828Z,24.50
2019-05-26T12:22:26.839Z,24.50
2019-05-26T12:24:54.772Z,24.50
2019-05-26T12:27:22.737Z,24.50
2019-05-26T12:29:50.709Z,24.50
2019-05-26T12:32:18.594Z,24.50
2019-05-26T12:34:46.643Z,24.50
2019-05-26T12:37:14.627Z,24.50
2019-05-26T12:39:42.489Z,24.50
2019-05-26T12:42:10.455Z,24.50
2019-05-26T12:44:48.996Z,24.50
2019-05-26T12:47:08.125Z,24.50
2019-05-26T12:49:36.197Z,24.50
2019-05-26T12:52:04.326Z,24.60
2019-05-26T12:54:32.253Z,24.60
2019-05-26T12:57:00.314Z,24.60
2019-05-26T12:59:28.383Z,24.60
2019-05-26T13:01:56.349Z,24.50
2019-05-26T13:04:24.420Z,24.60
2019-05-26T13:06:52.351Z,24.60
2019-05-26T13:09:20.289Z,24.60
2019-05-26T13:11:48.325Z,24.60
2019-05-26T13:14:16.354Z,24.60
2019-05-26T13:16:44.240Z,24.60
2019-05-26T13:19:12.234Z,24.60
2019-05-26T13:21:40.300Z,24.60
2019-05-26T13:24:08.216Z,24.60
2019-05-26T13:26:36.249Z,24.60
2019-05-26T13:29:04.217Z,24.60
2019-05-26T13:31:32.188Z,24.70
2019-05-26T13:34:00.145Z,24.60
2019-05-26T13:36:28.130Z,24.60
2019-05-26T13:38:56.021Z,24.60
2019-05-26T13:41:24.056Z,24.60
2019-05-26T13:43:52.041Z,24.60
2019-05-26T13:46:20.125Z,24.50
2019-05-26T13:48:47.957Z,24.60
2019-05-26T13:51:15.923Z,24.60
2019-05-26T13:53:43.830Z,24.60
2019-05-26T13:56:11.868Z,24.70
2019-05-26T13:58:39.830Z,24.70
2019-05-26T14:01:07.801Z,24.70
2019-05-26T14:03:35.771Z,24.70
2019-05-26T14:06:03.786Z,24.70
2019-05-26T14:08:31.709Z,24.70
2019-05-26T14:10:59.794Z,24.70
2019-05-26T14:13:27.852Z,24.70
2019-05-26T14:15:55.725Z,24.70
2019-05-26T14:18:23.787Z,24.70
2019-05-26T14:20:51.858Z,24.70
2019-05-26T14:23:19.772Z,24.70
2019-05-26T14:25:47.704Z,24.70
2019-05-26T14:28:15.662Z,24.70
2019-05-26T14:30:43.679Z,24.60
2019-05-26T14:33:12.337Z,24.60
2019-05-26T14:35:40.387Z,24.60
2019-05-26T14:38:08.465Z,24.60
2019-05-26T14:40:36.541Z,24.60
2019-05-26T14:43:04.600Z,24.60
2019-05-26T14:45:32.570Z,24.60
2019-05-26T14:48:00.568Z,24.60
2019-05-26T14:50:28.612Z,24.60
2019-05-26T14:52:56.640Z,24.60
2019-05-26T14:55:24.674Z,24.60
2019-05-26T14:57:52.720Z,24.60
2019-05-26T15:00:20.750Z,24.60
2019-05-26T15:02:48.760Z,24.60
2019-05-26T15:05:16.758Z,24.60
2019-05-26T15:07:44.910Z,24.60
2019-05-26T15:10:12.995Z,24.60
2019-05-26T15:12:41.000Z,24.60
2019-05-26T15:15:09.162Z,24.60
2019-05-26T15:17:37.197Z,24.70
2019-05-26T15:20:05.258Z,24.70
2019-05-26T15:22:33.232Z,24.60
2019-05-26T15:25:01.308Z,24.60
2019-05-26T15:27:29.269Z,24.60
2019-05-26T15:29:57.237Z,24.60
2019-05-26T15:32:25.417Z,24.60
2019-05-26T15:34:53.482Z,24.60
2019-05-26T15:37:21.493Z,24.60
2019-05-26T15:39:49.521Z,24.60
2019-05-26T15:42:17.496Z,24.60
2019-05-26T15:44:45.560Z,24.60
2019-05-26T15:47:13.549Z,24.60
2019-05-26T15:49:41.502Z,24.60
2019-05-26T15:52:09.573Z,24.60
2019-05-26T15:54:37.461Z,24.60
2019-05-26T15:57:05.360Z,24.60
2019-05-26T15:59:33.328Z,24.60
2019-05-26T16:02:01.390Z,24.60
2019-05-26T16:04:29.423Z,24.60
2019-05-26T16:06:57.485Z,24.60
2019-05-26T16:09:25.454Z,24.60
2019-05-26T16:11:53.522Z,24.60
2019-05-26T16:14:21.565Z,24.60
2019-05-26T16:16:51.363Z,24.60
2019-05-26T16:19:19.172Z,24.60
2019-05-26T16:21:47.255Z,24.60
2019-05-26T16:24:15.317Z,24.50
2019-05-26T16:26:44.001Z,24.50
2019-05-26T16:29:11.968Z,24.50
2019-05-26T16:31:40.014Z,24.50
2019-05-26T16:34:08.108Z,24.60
2019-05-26T16:36:36.179Z,24.50
2019-05-26T16:39:05.693Z,24.50
2019-05-26T16:41:33.657Z,24.50
2019-05-26T16:44:01.678Z,24.60
2019-05-26T16:46:29.695Z,24.60
2019-05-26T16:48:58.930Z,24.60
2019-05-26T16:51:26.972Z,24.50
2019-05-26T16:53:55.045Z,24.50
2019-05-26T16:56:23.232Z,24.60
2019-05-26T16:58:51.190Z,24.60
2019-05-26T17:01:19.315Z,24.50
2019-05-26T17:03:47.855Z,24.50
2019-05-26T17:06:16.006Z,24.50
2019-05-26T17:08:44.076Z,24.50
2019-05-26T17:11:12.056Z,24.50
2019-05-26T17:13:40.017Z,24.50
2019-05-26T17:16:07.938Z,24.50
2019-05-26T17:18:35.861Z,24.50
2019-05-26T17:21:04.670Z,24.50
2019-05-26T17:23:35.370Z,24.50
2019-05-26T17:26:03.446Z,24.50
2019-05-26T17:28:31.432Z,24.50
2019-05-26T17:30:59.390Z,24.50
2019-05-26T17:33:27.350Z,24.50
2019-05-26T17:35:55.314Z,24.50
2019-05-26T17:38:23.326Z,24.50
2019-05-26T17:40:51.275Z,24.50
2019-05-26T17:43:19.228Z,24.50
2019-05-26T17:45:47.124Z,24.50
2019-05-26T17:48:15.061Z,24.50
2019-05-26T17:50:43.125Z,24.50
2019-05-26T17:53:11.137Z,24.50
2019-05-26T17:55:39.071Z,24.50
2019-05-26T17:58:06.933Z,24.50
2019-05-26T18:00:34.901Z,24.40
2019-05-26T18:03:02.959Z,24.40
2019-05-26T18:05:30.939Z,24.40
2019-05-26T18:07:59.009Z,24.40
2019-05-26T18:10:27.090Z,24.40
2019-05-26T18:12:55.048Z,24.40
2019-05-26T18:15:23.057Z,24.40
2019-05-26T18:17:50.993Z,24.40
2019-05-26T18:20:18.954Z,24.40
2019-05-26T18:22:46.869Z,24.40
2019-05-26T18:25:14.805Z,24.40
2019-05-26T18:27:43.788Z,24.40
2019-05-26T18:30:11.817Z,24.40
2019-05-26T18:32:39.830Z,24.50
2019-05-26T18:35:08.013Z,24.50
2019-05-26T18:37:36.116Z,24.50
2019-05-26T18:40:05.269Z,24.50
2019-05-26T18:42:33.375Z,24.50
2019-05-26T18:45:01.929Z,24.50
2019-05-26T18:47:29.990Z,24.40
2019-05-26T18:49:57.994Z,24.40
2019-05-26T18:52:26.044Z,24.40
2019-05-26T18:54:54.035Z,24.40
2019-05-26T18:57:22.107Z,24.40
2019-05-26T18:59:50.193Z,24.50
2019-05-26T19:02:18.128Z,24.40
2019-05-26T19:04:46.158Z,24.40
2019-05-26T19:07:14.253Z,24.40
2019-05-26T19:09:42.345Z,24.50
2019-05-26T19:12:10.599Z,24.40
2019-05-26T19:14:38.572Z,24.40
2019-05-26T19:17:06.641Z,24.40
2019-05-26T19:19:34.713Z,24.40
2019-05-26T19:22:02.701Z,24.40
2019-05-26T19:24:30.852Z,24.40
2019-05-26T19:26:58.850Z,24.40
2019-05-26T19:29:26.924Z,24.40
2019-05-26T19:31:54.862Z,24.40
2019-05-26T19:34:22.838Z,24.40
2019-05-26T19:36:50.901Z,24.40
2019-05-26T19:39:18.975Z,24.40
2019-05-26T19:41:47.047Z,24.50
2019-05-26T19:44:15.152Z,24.40
2019-05-26T19:46:43.086Z,24.40
2019-05-26T19:49:11.056Z,24.50
2019-05-26T19:51:39.064Z,24.40
2019-05-26T19:54:07.097Z,24.40
2019-05-26T19:56:35.164Z,24.50
2019-05-26T19:59:03.286Z,24.50
2019-05-26T20:01:31.225Z,24.40
2019-05-26T20:03:59.276Z,24.50
2019-05-26T20:06:27.250Z,24.40
2019-05-26T20:08:55.226Z,24.40
2019-05-26T20:11:23.180Z,24.40
2019-05-26T20:13:51.174Z,24.40
2019-05-26T20:16:19.116Z,24.40
2019-05-26T20:18:47.094Z,24.40
2019-05-26T20:21:15.086Z,24.40
2019-05-26T20:23:43.126Z,24.40
2019-05-26T20:26:11.056Z,24.40
2019-05-26T20:28:38.965Z,24.40
2019-05-26T20:31:06.934Z,24.30
2019-05-26T20:33:34.896Z,24.30
2019-05-26T20:36:02.868Z,24.30
2019-05-26T20:38:30.835Z,24.40
2019-05-26T20:40:58.806Z,24.40
2019-05-26T20:43:26.703Z,24.40
2019-05-26T20:45:54.677Z,24.40
2019-05-26T20:48:23.939Z,24.40
2019-05-26T20:50:52.009Z,24.30
2019-05-26T20:53:20.082Z,24.40
2019-05-26T20:55:48.073Z,24.40
2019-05-26T20:58:15.983Z,24.40
2019-05-26T21:00:43.989Z,24.40
2019-05-26T21:03:11.957Z,24.40
2019-05-26T21:05:39.923Z,24.40
2019-05-26T21:08:07.890Z,24.40
2019-05-26T21:10:35.761Z,24.30
2019-05-26T21:13:03.729Z,24.40
2019-05-26T21:15:31.696Z,24.40
2019-05-26T21:17:59.664Z,24.30
2019-05-26T21:20:27.634Z,24.30
2019-05-26T21:22:55.705Z,24.30
2019-05-26T21:25:23.570Z,24.30
2019-05-26T21:27:51.560Z,24.30
2019-05-26T21:30:19.719Z,24.30
2019-05-26T21:32:47.632Z,24.30
2019-05-26T21:35:15.570Z,24.30
2019-05-26T21:37:43.623Z,24.30
2019-05-26T21:40:11.591Z,24.30
2019-05-26T21:42:39.665Z,24.30
2019-05-26T21:45:07.646Z,24.30
2019-05-26T21:47:35.602Z,24.30
2019-05-26T21:50:03.877Z,24.30
2019-05-26T21:52:31.809Z,24.30
2019-05-26T21:54:59.914Z,24.30
2019-05-26T21:57:27.883Z,24.30
2019-05-26T21:59:55.953Z,24.30
2019-05-26T22:02:23.947Z,24.30
2019-05-26T22:04:51.997Z,24.30
2019-05-26T22:07:20.012Z,24.30
2019-05-26T22:09:48.039Z,24.30
2019-05-26T22:12:16.105Z,24.30
2019-05-26T22:14:44.018Z,24.30
2019-05-26T22:17:11.961Z,24.30
2019-05-26T22:19:40.012Z,24.30
2019-05-26T22:22:07.981Z,24.30
2019-05-26T22:24:36.008Z,24.30
2019-05-26T22:27:04.049Z,24.30
2019-05-26T22:29:31.999Z,24.30
2019-05-26T22:31:59.956Z,24.30
2019-05-26T22:34:27.865Z,24.20
2019-05-26T22:36:55.798Z,24.30
2019-05-26T22:39:23.740Z,24.20
2019-05-26T22:41:51.764Z,24.20
2019-05-26T22:44:19.704Z,24.20
2019-05-26T22:46:47.670Z,24.30
2019-05-26T22:49:15.640Z,24.30
2019-05-26T22:51:43.616Z,24.20
2019-05-26T22:54:11.583Z,24.20
2019-05-26T22:56:39.456Z,24.20
2019-05-26T22:59:07.512Z,24.20
2019-05-26T23:01:35.421Z,24.20
2019-05-26T23:04:03.509Z,24.20
2019-05-26T23:06:31.827Z,24.20
2019-05-26T23:08:59.731Z,24.20
2019-05-26T23:11:27.762Z,24.20
2019-05-26T23:13:55.733Z,24.20
2019-05-26T23:16:23.839Z,24.20
2019-05-26T23:18:51.773Z,24.20
2019-05-26T23:21:19.741Z,24.20
2019-05-26T23:23:47.736Z,24.20
2019-05-26T23:26:15.784Z,24.20
2019-05-26T23:28:43.797Z,24.20
2019-05-26T23:31:11.822Z,24.20
2019-05-26T23:33:39.893Z,24.20
2019-05-26T23:36:07.969Z,24.20
2019-05-26T23:38:36.036Z,24.20
2019-05-26T23:41:04.072Z,24.20
2019-05-26T23:43:32.001Z,24.10
2019-05-26T23:46:00.042Z,24.10
2019-05-26T23:48:28.113Z,24.10
2019-05-26T23:50:56.104Z,24.20
2019-05-26T23:53:24.066Z,24.10
2019-05-26T23:55:51.965Z,24.10
2019-05-26T23:58:20.091Z,24.10
